sensor_id;sensor_type;location;lat;lon;timestamp;P1;durP1;ratioP1;P2;durP2;ratioP2
75620;SDS011;64574;48.506;-2.750;2023-01-28T00:01:46;2.20;;;0.60;;
75620;SDS011;64574;48.506;-2.750;2023-01-28T00:04:12;3.95;;;0.95;;
75620;SDS011;64574;48.506;-2.750;2023-01-28T00:06:38;2.28;;;0.70;;
75620;SDS011;64574;48.506;-2.750;2023-01-28T00:09:04;2.38;;;0.63;;
75620;SDS011;64574;48.506;-2.750;2023-01-28T00:11:30;4.25;;;0.60;;
75620;SDS011;64574;48.506;-2.750;2023-01-28T00:13:55;2.67;;;0.35;;
75620;SDS011;64574;48.506;-2.750;2023-01-28T00:16:21;6.25;;;0.63;;
75620;SDS011;64574;48.506;-2.750;2023-01-28T00:18:47;1.60;;;0.52;;
75620;SDS011;64574;48.506;-2.750;2023-01-28T00:21:13;2.53;;;0.52;;
75620;SDS011;64574;48.506;-2.750;2023-01-28T00:23:40;2.88;;;0.50;;
75620;SDS011;64574;48.506;-2.750;2023-01-28T00:26:11;3.15;;;0.40;;
75620;SDS011;64574;48.506;-2.750;2023-01-28T00:28:38;2.28;;;0.50;;
75620;SDS011;64574;48.506;-2.750;2023-01-28T00:31:20;2.40;;;0.43;;
75620;SDS011;64574;48.506;-2.750;2023-01-28T00:33:48;3.25;;;0.52;;
75620;SDS011;64574;48.506;-2.750;2023-01-28T00:36:15;1.90;;;0.40;;
75620;SDS011;64574;48.506;-2.750;2023-01-28T00:38:42;2.58;;;0.50;;
75620;SDS011;64574;48.506;-2.750;2023-01-28T00:43:34;1.35;;;0.50;;
75620;SDS011;64574;48.506;-2.750;2023-01-28T00:46:00;3.17;;;0.82;;
75620;SDS011;64574;48.506;-2.750;2023-01-28T00:48:26;3.08;;;0.60;;
75620;SDS011;64574;48.506;-2.750;2023-01-28T00:50:51;5.43;;;0.70;;
75620;SDS011;64574;48.506;-2.750;2023-01-28T00:53:17;2.00;;;0.30;;
75620;SDS011;64574;48.506;-2.750;2023-01-28T00:55:43;3.95;;;0.68;;
75620;SDS011;64574;48.506;-2.750;2023-01-28T00:58:08;4.40;;;0.85;;
75620;SDS011;64574;48.506;-2.750;2023-01-28T01:00:34;1.83;;;0.40;;
75620;SDS011;64574;48.506;-2.750;2023-01-28T01:02:59;3.00;;;0.40;;
75620;SDS011;64574;48.506;-2.750;2023-01-28T01:05:25;3.70;;;0.73;;
75620;SDS011;64574;48.506;-2.750;2023-01-28T01:07:51;1.05;;;0.30;;
75620;SDS011;64574;48.506;-2.750;2023-01-28T01:10:17;5.47;;;0.60;;
75620;SDS011;64574;48.506;-2.750;2023-01-28T01:12:47;3.65;;;0.60;;
75620;SDS011;64574;48.506;-2.750;2023-01-28T01:15:14;1.42;;;0.50;;
75620;SDS011;64574;48.506;-2.750;2023-01-28T01:17:41;1.60;;;0.43;;
75620;SDS011;64574;48.506;-2.750;2023-01-28T01:20:12;3.42;;;0.63;;
75620;SDS011;64574;48.506;-2.750;2023-01-28T01:22:40;2.15;;;0.52;;
75620;SDS011;64574;48.506;-2.750;2023-01-28T01:25:06;4.78;;;0.70;;
75620;SDS011;64574;48.506;-2.750;2023-01-28T01:27:32;2.58;;;0.50;;
75620;SDS011;64574;48.506;-2.750;2023-01-28T01:29:58;3.20;;;0.80;;
75620;SDS011;64574;48.506;-2.750;2023-01-28T01:32:32;4.13;;;0.63;;
75620;SDS011;64574;48.506;-2.750;2023-01-28T01:35:01;2.50;;;0.45;;
75620;SDS011;64574;48.506;-2.750;2023-01-28T01:37:32;3.60;;;0.80;;
75620;SDS011;64574;48.506;-2.750;2023-01-28T01:39:58;5.25;;;0.82;;
75620;SDS011;64574;48.506;-2.750;2023-01-28T01:42:26;2.55;;;0.40;;
75620;SDS011;64574;48.506;-2.750;2023-01-28T01:44:54;3.13;;;0.60;;
75620;SDS011;64574;48.506;-2.750;2023-01-28T01:47:33;2.55;;;0.30;;
75620;SDS011;64574;48.506;-2.750;2023-01-28T01:50:07;3.85;;;0.73;;
75620;SDS011;64574;48.506;-2.750;2023-01-28T01:52:42;4.65;;;0.70;;
75620;SDS011;64574;48.506;-2.750;2023-01-28T01:55:11;1.88;;;0.60;;
75620;SDS011;64574;48.506;-2.750;2023-01-28T01:57:40;4.82;;;0.98;;
75620;SDS011;64574;48.506;-2.750;2023-01-28T02:02:35;5.50;;;0.60;;
75620;SDS011;64574;48.506;-2.750;2023-01-28T02:05:03;1.15;;;0.45;;
75620;SDS011;64574;48.506;-2.750;2023-01-28T02:07:31;3.33;;;0.60;;
75620;SDS011;64574;48.506;-2.750;2023-01-28T02:09:57;3.75;;;0.60;;
75620;SDS011;64574;48.506;-2.750;2023-01-28T02:12:23;2.67;;;0.73;;
75620;SDS011;64574;48.506;-2.750;2023-01-28T02:15:04;4.10;;;0.60;;
75620;SDS011;64574;48.506;-2.750;2023-01-28T02:17:33;4.20;;;0.50;;
75620;SDS011;64574;48.506;-2.750;2023-01-28T02:20:01;2.97;;;0.70;;
75620;SDS011;64574;48.506;-2.750;2023-01-28T02:25:31;2.55;;;0.50;;
75620;SDS011;64574;48.506;-2.750;2023-01-28T02:31:05;4.50;;;0.57;;
75620;SDS011;64574;48.506;-2.750;2023-01-28T02:33:34;3.05;;;0.45;;
75620;SDS011;64574;48.506;-2.750;2023-01-28T02:36:12;2.97;;;0.60;;
75620;SDS011;64574;48.506;-2.750;2023-01-28T02:38:40;4.15;;;0.52;;
75620;SDS011;64574;48.506;-2.750;2023-01-28T02:41:13;4.10;;;0.57;;
75620;SDS011;64574;48.506;-2.750;2023-01-28T02:43:52;3.47;;;0.45;;
75620;SDS011;64574;48.506;-2.750;2023-01-28T02:46:31;4.38;;;0.65;;
75620;SDS011;64574;48.506;-2.750;2023-01-28T02:49:21;1.98;;;0.55;;
75620;SDS011;64574;48.506;-2.750;2023-01-28T02:57:36;3.47;;;0.63;;
75620;SDS011;64574;48.506;-2.750;2023-01-28T03:00:21;5.30;;;0.88;;
75620;SDS011;64574;48.506;-2.750;2023-01-28T03:07:45;3.70;;;0.77;;
75620;SDS011;64574;48.506;-2.750;2023-01-28T03:10:11;2.92;;;0.60;;
75620;SDS011;64574;48.506;-2.750;2023-01-28T03:12:41;2.78;;;0.43;;
75620;SDS011;64574;48.506;-2.750;2023-01-28T03:15:34;2.67;;;0.47;;
75620;SDS011;64574;48.506;-2.750;2023-01-28T03:18:29;3.33;;;0.68;;
75620;SDS011;64574;48.506;-2.750;2023-01-28T03:21:27;3.13;;;0.60;;
75620;SDS011;64574;48.506;-2.750;2023-01-28T03:27:12;3.25;;;0.70;;
75620;SDS011;64574;48.506;-2.750;2023-01-28T03:30:21;4.60;;;0.57;;
75620;SDS011;64574;48.506;-2.750;2023-01-28T03:33:09;3.83;;;0.70;;
75620;SDS011;64574;48.506;-2.750;2023-01-28T03:35:54;4.38;;;0.60;;
75620;SDS011;64574;48.506;-2.750;2023-01-28T03:38:39;0.95;;;0.40;;
75620;SDS011;64574;48.506;-2.750;2023-01-28T03:41:07;5.28;;;0.88;;
75620;SDS011;64574;48.506;-2.750;2023-01-28T03:43:36;2.42;;;0.50;;
75620;SDS011;64574;48.506;-2.750;2023-01-28T03:46:02;2.65;;;0.47;;
75620;SDS011;64574;48.506;-2.750;2023-01-28T03:48:30;2.85;;;0.73;;
75620;SDS011;64574;48.506;-2.750;2023-01-28T03:50:56;2.80;;;0.70;;
75620;SDS011;64574;48.506;-2.750;2023-01-28T03:53:24;4.90;;;0.70;;
75620;SDS011;64574;48.506;-2.750;2023-01-28T03:55:51;4.32;;;0.68;;
75620;SDS011;64574;48.506;-2.750;2023-01-28T03:58:17;2.88;;;0.50;;
75620;SDS011;64574;48.506;-2.750;2023-01-28T04:00:44;2.70;;;0.45;;
75620;SDS011;64574;48.506;-2.750;2023-01-28T04:03:10;5.18;;;1.00;;
75620;SDS011;64574;48.506;-2.750;2023-01-28T04:05:44;2.88;;;0.70;;
75620;SDS011;64574;48.506;-2.750;2023-01-28T04:08:12;2.25;;;0.52;;
75620;SDS011;64574;48.506;-2.750;2023-01-28T04:10:38;4.45;;;0.55;;
75620;SDS011;64574;48.506;-2.750;2023-01-28T04:13:07;3.67;;;0.60;;
75620;SDS011;64574;48.506;-2.750;2023-01-28T04:15:32;4.95;;;0.65;;
75620;SDS011;64574;48.506;-2.750;2023-01-28T04:17:59;4.70;;;0.45;;
75620;SDS011;64574;48.506;-2.750;2023-01-28T04:20:25;4.28;;;0.60;;
75620;SDS011;64574;48.506;-2.750;2023-01-28T04:22:51;4.32;;;0.70;;
75620;SDS011;64574;48.506;-2.750;2023-01-28T04:25:16;2.28;;;0.60;;
75620;SDS011;64574;48.506;-2.750;2023-01-28T04:27:42;2.20;;;0.57;;
75620;SDS011;64574;48.506;-2.750;2023-01-28T04:30:08;4.20;;;0.60;;
75620;SDS011;64574;48.506;-2.750;2023-01-28T04:32:34;2.38;;;0.60;;
75620;SDS011;64574;48.506;-2.750;2023-01-28T04:34:59;2.15;;;0.50;;
75620;SDS011;64574;48.506;-2.750;2023-01-28T04:37:25;2.55;;;0.63;;
75620;SDS011;64574;48.506;-2.750;2023-01-28T04:39:50;3.70;;;0.73;;
75620;SDS011;64574;48.506;-2.750;2023-01-28T04:42:16;3.15;;;0.50;;
75620;SDS011;64574;48.506;-2.750;2023-01-28T04:44:42;3.40;;;0.40;;
75620;SDS011;64574;48.506;-2.750;2023-01-28T04:47:07;3.65;;;0.50;;
75620;SDS011;64574;48.506;-2.750;2023-01-28T04:49:33;3.72;;;0.65;;
75620;SDS011;64574;48.506;-2.750;2023-01-28T04:51:58;1.73;;;0.60;;
75620;SDS011;64574;48.506;-2.750;2023-01-28T04:54:24;3.53;;;0.50;;
75620;SDS011;64574;48.506;-2.750;2023-01-28T04:56:50;4.57;;;0.70;;
75620;SDS011;64574;48.506;-2.750;2023-01-28T04:59:15;4.80;;;0.73;;
75620;SDS011;64574;48.506;-2.750;2023-01-28T05:01:41;2.88;;;0.85;;
75620;SDS011;64574;48.506;-2.750;2023-01-28T05:04:06;3.08;;;0.60;;
75620;SDS011;64574;48.506;-2.750;2023-01-28T05:06:33;1.98;;;0.52;;
75620;SDS011;64574;48.506;-2.750;2023-01-28T05:08:59;2.55;;;0.60;;
75620;SDS011;64574;48.506;-2.750;2023-01-28T05:11:24;4.43;;;1.33;;
75620;SDS011;64574;48.506;-2.750;2023-01-28T05:13:50;3.63;;;0.73;;
75620;SDS011;64574;48.506;-2.750;2023-01-28T05:16:16;6.18;;;0.77;;
75620;SDS011;64574;48.506;-2.750;2023-01-28T05:18:42;2.75;;;0.50;;
75620;SDS011;64574;48.506;-2.750;2023-01-28T05:21:07;2.53;;;0.57;;
75620;SDS011;64574;48.506;-2.750;2023-01-28T05:23:33;4.97;;;0.65;;
75620;SDS011;64574;48.506;-2.750;2023-01-28T05:25:59;3.10;;;0.60;;
75620;SDS011;64574;48.506;-2.750;2023-01-28T05:28:25;1.95;;;0.50;;
75620;SDS011;64574;48.506;-2.750;2023-01-28T05:30:50;4.35;;;0.70;;
75620;SDS011;64574;48.506;-2.750;2023-01-28T05:33:16;1.92;;;0.50;;
75620;SDS011;64574;48.506;-2.750;2023-01-28T05:35:42;5.05;;;0.80;;
75620;SDS011;64574;48.506;-2.750;2023-01-28T05:38:07;4.28;;;0.65;;
75620;SDS011;64574;48.506;-2.750;2023-01-28T05:40:33;1.15;;;0.50;;
75620;SDS011;64574;48.506;-2.750;2023-01-28T05:42:59;1.50;;;0.40;;
75620;SDS011;64574;48.506;-2.750;2023-01-28T05:45:24;1.30;;;0.52;;
75620;SDS011;64574;48.506;-2.750;2023-01-28T05:47:50;3.70;;;0.45;;
75620;SDS011;64574;48.506;-2.750;2023-01-28T05:50:15;2.33;;;0.55;;
75620;SDS011;64574;48.506;-2.750;2023-01-28T05:52:41;2.40;;;0.50;;
75620;SDS011;64574;48.506;-2.750;2023-01-28T05:55:07;1.58;;;0.60;;
75620;SDS011;64574;48.506;-2.750;2023-01-28T05:57:33;2.67;;;0.68;;
75620;SDS011;64574;48.506;-2.750;2023-01-28T05:59:59;2.38;;;0.80;;
75620;SDS011;64574;48.506;-2.750;2023-01-28T06:02:24;3.85;;;1.00;;
75620;SDS011;64574;48.506;-2.750;2023-01-28T06:04:50;3.60;;;1.10;;
75620;SDS011;64574;48.506;-2.750;2023-01-28T06:07:15;3.50;;;1.00;;
75620;SDS011;64574;48.506;-2.750;2023-01-28T06:09:44;6.40;;;0.88;;
75620;SDS011;64574;48.506;-2.750;2023-01-28T06:14:37;4.00;;;0.98;;
75620;SDS011;64574;48.506;-2.750;2023-01-28T06:17:02;7.88;;;1.30;;
75620;SDS011;64574;48.506;-2.750;2023-01-28T06:19:28;3.42;;;1.33;;
75620;SDS011;64574;48.506;-2.750;2023-01-28T06:21:53;5.13;;;1.45;;
75620;SDS011;64574;48.506;-2.750;2023-01-28T06:24:19;6.18;;;1.30;;
75620;SDS011;64574;48.506;-2.750;2023-01-28T06:26:45;2.92;;;1.10;;
75620;SDS011;64574;48.506;-2.750;2023-01-28T06:29:11;3.47;;;1.40;;
75620;SDS011;64574;48.506;-2.750;2023-01-28T06:31:36;3.83;;;1.10;;
75620;SDS011;64574;48.506;-2.750;2023-01-28T06:34:02;7.85;;;1.55;;
75620;SDS011;64574;48.506;-2.750;2023-01-28T06:36:28;3.45;;;1.20;;
75620;SDS011;64574;48.506;-2.750;2023-01-28T06:38:54;4.30;;;1.10;;
75620;SDS011;64574;48.506;-2.750;2023-01-28T06:41:19;3.97;;;1.20;;
75620;SDS011;64574;48.506;-2.750;2023-01-28T06:43:45;3.30;;;1.23;;
75620;SDS011;64574;48.506;-2.750;2023-01-28T06:46:11;3.63;;;1.10;;
75620;SDS011;64574;48.506;-2.750;2023-01-28T06:48:36;2.92;;;1.20;;
75620;SDS011;64574;48.506;-2.750;2023-01-28T06:51:02;5.55;;;1.23;;
75620;SDS011;64574;48.506;-2.750;2023-01-28T06:53:28;2.50;;;1.17;;
75620;SDS011;64574;48.506;-2.750;2023-01-28T06:55:53;3.63;;;1.17;;
75620;SDS011;64574;48.506;-2.750;2023-01-28T06:58:19;6.55;;;2.05;;
75620;SDS011;64574;48.506;-2.750;2023-01-28T07:00:45;3.28;;;1.67;;
75620;SDS011;64574;48.506;-2.750;2023-01-28T07:03:10;2.50;;;1.45;;
75620;SDS011;64574;48.506;-2.750;2023-01-28T07:05:36;4.13;;;1.70;;
75620;SDS011;64574;48.506;-2.750;2023-01-28T07:08:02;2.53;;;1.30;;
75620;SDS011;64574;48.506;-2.750;2023-01-28T07:10:28;3.67;;;1.45;;
75620;SDS011;64574;48.506;-2.750;2023-01-28T07:12:54;4.57;;;1.65;;
75620;SDS011;64574;48.506;-2.750;2023-01-28T07:15:20;5.10;;;1.40;;
75620;SDS011;64574;48.506;-2.750;2023-01-28T07:17:45;6.35;;;1.95;;
75620;SDS011;64574;48.506;-2.750;2023-01-28T07:20:11;7.35;;;1.80;;
75620;SDS011;64574;48.506;-2.750;2023-01-28T07:22:39;4.22;;;1.58;;
75620;SDS011;64574;48.506;-2.750;2023-01-28T07:25:07;3.35;;;1.40;;
75620;SDS011;64574;48.506;-2.750;2023-01-28T07:27:33;3.55;;;1.30;;
75620;SDS011;64574;48.506;-2.750;2023-01-28T07:30:02;5.05;;;1.67;;
75620;SDS011;64574;48.506;-2.750;2023-01-28T07:32:28;4.60;;;1.65;;
75620;SDS011;64574;48.506;-2.750;2023-01-28T07:34:54;3.05;;;1.67;;
75620;SDS011;64574;48.506;-2.750;2023-01-28T07:37:19;5.55;;;1.42;;
75620;SDS011;64574;48.506;-2.750;2023-01-28T07:39:45;4.13;;;1.58;;
75620;SDS011;64574;48.506;-2.750;2023-01-28T07:42:11;4.93;;;1.50;;
75620;SDS011;64574;48.506;-2.750;2023-01-28T07:44:36;5.65;;;1.70;;
75620;SDS011;64574;48.506;-2.750;2023-01-28T07:47:03;3.72;;;1.80;;
75620;SDS011;64574;48.506;-2.750;2023-01-28T07:49:30;4.53;;;1.35;;
75620;SDS011;64574;48.506;-2.750;2023-01-28T07:51:57;5.00;;;1.73;;
75620;SDS011;64574;48.506;-2.750;2023-01-28T07:54:22;5.10;;;1.42;;
75620;SDS011;64574;48.506;-2.750;2023-01-28T07:56:48;5.25;;;1.95;;
75620;SDS011;64574;48.506;-2.750;2023-01-28T07:59:14;3.90;;;1.77;;
75620;SDS011;64574;48.506;-2.750;2023-01-28T08:01:39;7.40;;;2.30;;
75620;SDS011;64574;48.506;-2.750;2023-01-28T08:04:05;4.70;;;2.03;;
75620;SDS011;64574;48.506;-2.750;2023-01-28T08:06:31;3.65;;;1.50;;
75620;SDS011;64574;48.506;-2.750;2023-01-28T08:09:01;5.03;;;2.20;;
75620;SDS011;64574;48.506;-2.750;2023-01-28T08:11:32;7.78;;;2.42;;
75620;SDS011;64574;48.506;-2.750;2023-01-28T08:13:58;4.47;;;2.10;;
75620;SDS011;64574;48.506;-2.750;2023-01-28T08:16:24;8.85;;;2.42;;
75620;SDS011;64574;48.506;-2.750;2023-01-28T08:18:51;5.05;;;1.92;;
75620;SDS011;64574;48.506;-2.750;2023-01-28T08:21:16;4.78;;;2.40;;
75620;SDS011;64574;48.506;-2.750;2023-01-28T08:23:42;3.92;;;1.95;;
75620;SDS011;64574;48.506;-2.750;2023-01-28T08:26:08;5.00;;;1.65;;
75620;SDS011;64574;48.506;-2.750;2023-01-28T08:28:33;6.25;;;2.63;;
75620;SDS011;64574;48.506;-2.750;2023-01-28T08:30:59;5.32;;;2.15;;
75620;SDS011;64574;48.506;-2.750;2023-01-28T08:33:25;2.67;;;1.48;;
75620;SDS011;64574;48.506;-2.750;2023-01-28T08:35:51;3.97;;;1.80;;
75620;SDS011;64574;48.506;-2.750;2023-01-28T08:38:16;11.40;;;2.13;;
75620;SDS011;64574;48.506;-2.750;2023-01-28T08:40:44;3.72;;;1.38;;
75620;SDS011;64574;48.506;-2.750;2023-01-28T08:43:19;3.67;;;1.55;;
75620;SDS011;64574;48.506;-2.750;2023-01-28T08:45:45;3.13;;;1.30;;
75620;SDS011;64574;48.506;-2.750;2023-01-28T08:48:11;2.67;;;1.23;;
75620;SDS011;64574;48.506;-2.750;2023-01-28T08:50:40;5.32;;;1.00;;
75620;SDS011;64574;48.506;-2.750;2023-01-28T08:53:10;10.10;;;1.10;;
75620;SDS011;64574;48.506;-2.750;2023-01-28T08:55:39;2.40;;;0.90;;
75620;SDS011;64574;48.506;-2.750;2023-01-28T08:58:06;3.65;;;0.80;;
75620;SDS011;64574;48.506;-2.750;2023-01-28T09:00:37;3.83;;;0.93;;
75620;SDS011;64574;48.506;-2.750;2023-01-28T09:03:03;4.68;;;1.00;;
75620;SDS011;64574;48.506;-2.750;2023-01-28T09:05:29;4.13;;;1.23;;
75620;SDS011;64574;48.506;-2.750;2023-01-28T09:07:59;3.35;;;1.13;;
75620;SDS011;64574;48.506;-2.750;2023-01-28T09:10:30;4.22;;;1.55;;
75620;SDS011;64574;48.506;-2.750;2023-01-28T09:12:55;5.20;;;1.45;;
75620;SDS011;64574;48.506;-2.750;2023-01-28T09:15:21;3.38;;;1.15;;
75620;SDS011;64574;48.506;-2.750;2023-01-28T09:17:46;5.75;;;0.95;;
75620;SDS011;64574;48.506;-2.750;2023-01-28T09:20:12;2.95;;;0.70;;
75620;SDS011;64574;48.506;-2.750;2023-01-28T09:22:38;4.60;;;0.80;;
75620;SDS011;64574;48.506;-2.750;2023-01-28T09:25:04;3.45;;;1.15;;
75620;SDS011;64574;48.506;-2.750;2023-01-28T09:27:30;3.13;;;0.77;;
75620;SDS011;64574;48.506;-2.750;2023-01-28T09:29:56;1.58;;;0.60;;
75620;SDS011;64574;48.506;-2.750;2023-01-28T09:32:22;2.45;;;0.90;;
75620;SDS011;64574;48.506;-2.750;2023-01-28T09:34:48;1.42;;;0.50;;
75620;SDS011;64574;48.506;-2.750;2023-01-28T09:37:15;2.13;;;0.50;;
75620;SDS011;64574;48.506;-2.750;2023-01-28T09:39:42;4.53;;;0.60;;
75620;SDS011;64574;48.506;-2.750;2023-01-28T09:45:02;4.40;;;0.98;;
75620;SDS011;64574;48.506;-2.750;2023-01-28T09:47:37;3.72;;;0.90;;
75620;SDS011;64574;48.506;-2.750;2023-01-28T09:50:11;2.20;;;0.47;;
75620;SDS011;64574;48.506;-2.750;2023-01-28T09:52:42;4.35;;;0.63;;
75620;SDS011;64574;48.506;-2.750;2023-01-28T09:57:58;2.05;;;0.60;;
75620;SDS011;64574;48.506;-2.750;2023-01-28T10:01:21;1.08;;;0.50;;
75620;SDS011;64574;48.506;-2.750;2023-01-28T10:11:34;4.55;;;1.00;;
75620;SDS011;64574;48.506;-2.750;2023-01-28T10:19:30;2.70;;;0.77;;
75620;SDS011;64574;48.506;-2.750;2023-01-28T10:22:01;3.97;;;0.80;;
75620;SDS011;64574;48.506;-2.750;2023-01-28T10:24:34;2.38;;;0.73;;
75620;SDS011;64574;48.506;-2.750;2023-01-28T10:27:09;3.33;;;0.63;;
75620;SDS011;64574;48.506;-2.750;2023-01-28T10:29:39;4.45;;;1.00;;
75620;SDS011;64574;48.506;-2.750;2023-01-28T10:34:42;2.15;;;0.80;;
75620;SDS011;64574;48.506;-2.750;2023-01-28T10:37:08;6.70;;;1.42;;
75620;SDS011;64574;48.506;-2.750;2023-01-28T10:39:38;3.28;;;0.98;;
75620;SDS011;64574;48.506;-2.750;2023-01-28T10:42:19;2.38;;;0.82;;
75620;SDS011;64574;48.506;-2.750;2023-01-28T10:45:22;1.95;;;0.93;;
75620;SDS011;64574;48.506;-2.750;2023-01-28T10:53:15;4.18;;;0.60;;
75620;SDS011;64574;48.506;-2.750;2023-01-28T10:55:49;3.78;;;0.73;;
75620;SDS011;64574;48.506;-2.750;2023-01-28T10:58:22;2.42;;;0.60;;
75620;SDS011;64574;48.506;-2.750;2023-01-28T11:00:58;2.42;;;0.60;;
75620;SDS011;64574;48.506;-2.750;2023-01-28T11:03:26;3.33;;;0.77;;
75620;SDS011;64574;48.506;-2.750;2023-01-28T11:05:55;2.38;;;0.50;;
75620;SDS011;64574;48.506;-2.750;2023-01-28T11:08:22;4.22;;;0.70;;
75620;SDS011;64574;48.506;-2.750;2023-01-28T11:10:50;2.78;;;0.60;;
75620;SDS011;64574;48.506;-2.750;2023-01-28T11:13:27;2.83;;;0.60;;
75620;SDS011;64574;48.506;-2.750;2023-01-28T11:18:50;3.25;;;0.70;;
75620;SDS011;64574;48.506;-2.750;2023-01-28T11:21:25;3.95;;;0.55;;
75620;SDS011;64574;48.506;-2.750;2023-01-28T11:24:02;2.10;;;0.60;;
75620;SDS011;64574;48.506;-2.750;2023-01-28T11:26:39;3.80;;;0.88;;
75620;SDS011;64574;48.506;-2.750;2023-01-28T11:31:58;2.95;;;0.60;;
75620;SDS011;64574;48.506;-2.750;2023-01-28T11:34:28;2.53;;;0.68;;
75620;SDS011;64574;48.506;-2.750;2023-01-28T11:37:01;3.45;;;0.90;;
75620;SDS011;64574;48.506;-2.750;2023-01-28T11:39:28;2.35;;;0.52;;
75620;SDS011;64574;48.506;-2.750;2023-01-28T11:42:12;2.70;;;0.45;;
75620;SDS011;64574;48.506;-2.750;2023-01-28T11:44:40;1.83;;;0.75;;
75620;SDS011;64574;48.506;-2.750;2023-01-28T11:52:59;4.43;;;0.55;;
75620;SDS011;64574;48.506;-2.750;2023-01-28T11:55:47;1.55;;;0.43;;
75620;SDS011;64574;48.506;-2.750;2023-01-28T12:00:51;3.90;;;0.50;;
75620;SDS011;64574;48.506;-2.750;2023-01-28T12:20:29;3.70;;;0.95;;
75620;SDS011;64574;48.506;-2.750;2023-01-28T12:31:22;3.13;;;0.82;;
75620;SDS011;64574;48.506;-2.750;2023-01-28T12:42:45;2.42;;;0.70;;
75620;SDS011;64574;48.506;-2.750;2023-01-28T12:45:25;3.33;;;0.95;;
75620;SDS011;64574;48.506;-2.750;2023-01-28T12:48:03;4.45;;;0.80;;
75620;SDS011;64574;48.506;-2.750;2023-01-28T12:50:37;4.95;;;0.80;;
75620;SDS011;64574;48.506;-2.750;2023-01-28T12:55:59;2.25;;;0.70;;
75620;SDS011;64574;48.506;-2.750;2023-01-28T12:58:53;3.47;;;0.70;;
75620;SDS011;64574;48.506;-2.750;2023-01-28T13:01:27;3.08;;;0.85;;
75620;SDS011;64574;48.506;-2.750;2023-01-28T13:04:31;3.15;;;0.80;;
75620;SDS011;64574;48.506;-2.750;2023-01-28T13:07:40;3.63;;;0.70;;
75620;SDS011;64574;48.506;-2.750;2023-01-28T13:10:21;2.67;;;0.60;;
75620;SDS011;64574;48.506;-2.750;2023-01-28T13:12:54;2.15;;;0.82;;
75620;SDS011;64574;48.506;-2.750;2023-01-28T13:15:21;5.75;;;1.10;;
75620;SDS011;64574;48.506;-2.750;2023-01-28T13:21:00;4.93;;;0.90;;
75620;SDS011;64574;48.506;-2.750;2023-01-28T13:25:56;2.28;;;0.90;;
75620;SDS011;64574;48.506;-2.750;2023-01-28T13:28:32;4.43;;;1.00;;
75620;SDS011;64574;48.506;-2.750;2023-01-28T13:31:12;2.88;;;0.73;;
75620;SDS011;64574;48.506;-2.750;2023-01-28T13:33:42;2.33;;;0.80;;
75620;SDS011;64574;48.506;-2.750;2023-01-28T13:41:40;3.20;;;0.68;;
75620;SDS011;64574;48.506;-2.750;2023-01-28T13:46:52;2.60;;;0.80;;
75620;SDS011;64574;48.506;-2.750;2023-01-28T13:52:06;2.00;;;0.70;;
75620;SDS011;64574;48.506;-2.750;2023-01-28T13:54:47;4.18;;;0.70;;
75620;SDS011;64574;48.506;-2.750;2023-01-28T14:00:04;2.10;;;1.00;;
75620;SDS011;64574;48.506;-2.750;2023-01-28T14:19:00;2.83;;;0.60;;
75620;SDS011;64574;48.506;-2.750;2023-01-28T14:21:27;3.60;;;0.70;;
75620;SDS011;64574;48.506;-2.750;2023-01-28T14:23:56;6.15;;;1.30;;
75620;SDS011;64574;48.506;-2.750;2023-01-28T14:32:43;3.15;;;0.70;;
75620;SDS011;64574;48.506;-2.750;2023-01-28T14:34:52;4.47;;;1.05;;
75620;SDS011;64574;48.506;-2.750;2023-01-28T14:37:21;2.90;;;0.80;;
75620;SDS011;64574;48.506;-2.750;2023-01-28T14:39:55;4.40;;;0.85;;
75620;SDS011;64574;48.506;-2.750;2023-01-28T14:42:23;2.72;;;0.60;;
75620;SDS011;64574;48.506;-2.750;2023-01-28T14:45:04;2.22;;;0.70;;
75620;SDS011;64574;48.506;-2.750;2023-01-28T14:58:28;5.82;;;0.88;;
75620;SDS011;64574;48.506;-2.750;2023-01-28T15:00:59;2.33;;;0.82;;
75620;SDS011;64574;48.506;-2.750;2023-01-28T15:03:26;3.75;;;0.95;;
75620;SDS011;64574;48.506;-2.750;2023-01-28T15:06:13;3.75;;;1.05;;
75620;SDS011;64574;48.506;-2.750;2023-01-28T15:08:44;2.88;;;0.77;;
75620;SDS011;64574;48.506;-2.750;2023-01-28T15:11:12;1.67;;;0.70;;
75620;SDS011;64574;48.506;-2.750;2023-01-28T15:13:42;2.97;;;0.80;;
75620;SDS011;64574;48.506;-2.750;2023-01-28T15:16:15;4.13;;;0.80;;
75620;SDS011;64574;48.506;-2.750;2023-01-28T15:18:48;3.38;;;0.98;;
75620;SDS011;64574;48.506;-2.750;2023-01-28T15:21:18;1.90;;;1.10;;
75620;SDS011;64574;48.506;-2.750;2023-01-28T15:23:46;6.65;;;1.15;;
75620;SDS011;64574;48.506;-2.750;2023-01-28T15:26:17;1.65;;;0.90;;
75620;SDS011;64574;48.506;-2.750;2023-01-28T15:28:43;4.25;;;1.35;;
75620;SDS011;64574;48.506;-2.750;2023-01-28T15:31:20;3.70;;;1.15;;
75620;SDS011;64574;48.506;-2.750;2023-01-28T15:33:54;3.67;;;1.00;;
75620;SDS011;64574;48.506;-2.750;2023-01-28T15:36:21;4.60;;;1.25;;
75620;SDS011;64574;48.506;-2.750;2023-01-28T15:38:47;6.22;;;1.35;;
75620;SDS011;64574;48.506;-2.750;2023-01-28T15:41:12;3.20;;;1.17;;
75620;SDS011;64574;48.506;-2.750;2023-01-28T15:43:44;3.72;;;0.93;;
75620;SDS011;64574;48.506;-2.750;2023-01-28T15:46:11;1.83;;;0.93;;
75620;SDS011;64574;48.506;-2.750;2023-01-28T15:48:39;2.85;;;0.80;;
75620;SDS011;64574;48.506;-2.750;2023-01-28T15:51:07;5.97;;;1.17;;
75620;SDS011;64574;48.506;-2.750;2023-01-28T15:53:42;3.22;;;1.08;;
75620;SDS011;64574;48.506;-2.750;2023-01-28T15:56:10;5.43;;;1.13;;
75620;SDS011;64574;48.506;-2.750;2023-01-28T15:58:37;5.20;;;1.20;;
75620;SDS011;64574;48.506;-2.750;2023-01-28T16:03:34;4.70;;;1.80;;
75620;SDS011;64574;48.506;-2.750;2023-01-28T16:06:07;5.50;;;1.80;;
75620;SDS011;64574;48.506;-2.750;2023-01-28T16:08:38;4.20;;;1.60;;
75620;SDS011;64574;48.506;-2.750;2023-01-28T16:11:09;4.35;;;1.63;;
75620;SDS011;64574;48.506;-2.750;2023-01-28T16:13:35;3.88;;;1.30;;
75620;SDS011;64574;48.506;-2.750;2023-01-28T16:16:06;5.10;;;1.40;;
75620;SDS011;64574;48.506;-2.750;2023-01-28T16:18:39;2.75;;;1.17;;
75620;SDS011;64574;48.506;-2.750;2023-01-28T16:21:06;2.78;;;0.88;;
75620;SDS011;64574;48.506;-2.750;2023-01-28T16:23:35;2.83;;;1.00;;
75620;SDS011;64574;48.506;-2.750;2023-01-28T16:26:03;4.22;;;1.20;;
75620;SDS011;64574;48.506;-2.750;2023-01-28T16:28:30;4.07;;;0.98;;
75620;SDS011;64574;48.506;-2.750;2023-01-28T16:30:57;3.53;;;0.90;;
75620;SDS011;64574;48.506;-2.750;2023-01-28T16:33:23;1.88;;;0.80;;
75620;SDS011;64574;48.506;-2.750;2023-01-28T16:35:50;5.03;;;1.17;;
75620;SDS011;64574;48.506;-2.750;2023-01-28T16:38:16;2.60;;;1.02;;
75620;SDS011;64574;48.506;-2.750;2023-01-28T16:40:43;8.70;;;1.60;;
75620;SDS011;64574;48.506;-2.750;2023-01-28T16:43:10;5.13;;;1.50;;
75620;SDS011;64574;48.506;-2.750;2023-01-28T16:45:37;4.22;;;1.13;;
75620;SDS011;64574;48.506;-2.750;2023-01-28T16:48:05;3.55;;;1.13;;
75620;SDS011;64574;48.506;-2.750;2023-01-28T16:50:31;6.75;;;1.75;;
75620;SDS011;64574;48.506;-2.750;2023-01-28T16:52:57;4.38;;;1.58;;
75620;SDS011;64574;48.506;-2.750;2023-01-28T16:55:24;7.18;;;2.70;;
75620;SDS011;64574;48.506;-2.750;2023-01-28T16:57:51;7.00;;;2.25;;
75620;SDS011;64574;48.506;-2.750;2023-01-28T17:05:13;6.05;;;1.90;;
75620;SDS011;64574;48.506;-2.750;2023-01-28T17:07:39;5.53;;;1.95;;
75620;SDS011;64574;48.506;-2.750;2023-01-28T17:10:05;6.18;;;2.42;;
75620;SDS011;64574;48.506;-2.750;2023-01-28T17:12:31;4.40;;;1.48;;
75620;SDS011;64574;48.506;-2.750;2023-01-28T17:14:57;5.03;;;1.80;;
75620;SDS011;64574;48.506;-2.750;2023-01-28T17:17:22;5.63;;;1.92;;
75620;SDS011;64574;48.506;-2.750;2023-01-28T17:19:48;7.03;;;1.90;;
75620;SDS011;64574;48.506;-2.750;2023-01-28T17:22:13;5.28;;;1.52;;
75620;SDS011;64574;48.506;-2.750;2023-01-28T17:24:39;5.40;;;1.88;;
75620;SDS011;64574;48.506;-2.750;2023-01-28T17:27:05;4.38;;;1.77;;
75620;SDS011;64574;48.506;-2.750;2023-01-28T17:29:30;4.80;;;1.90;;
75620;SDS011;64574;48.506;-2.750;2023-01-28T17:31:56;3.42;;;1.98;;